Time;durP1;ratioP1;P1;durP2;ratioP2;P2;SDS_P1;SDS_P2;PMS_P1;PMS_P2;Temp;Humidity;BMP_temperature;BMP_pressure;BME280_temperature;BME280_humidity;BME280_pressure;Samples;Min_cycle;Max_cycle;Signal;HPM_P1;HPM_P2
2022/10/30 00:02:11;;;;;;;19.33;14.80;;;;;;;;;;5153885;27;20793;-72
2022/10/30 00:04:40;;;;;;;18.90;14.73;;;;;;;;;;5155492;27;20454;-72
2022/10/30 00:07:07;;;;;;;21.37;14.47;;;;;;;;;;5155802;27;20498;-72
2022/10/30 00:09:34;;;;;;;22.00;15.87;;;;;;;;;;5155965;27;20454;-72
2022/10/30 00:12:01;;;;;;;19.00;13.73;;;;;;;;;;5156069;27;20838;-72
2022/10/30 00:14:28;;;;;;;17.07;13.43;;;;;;;;;;5155330;27;20452;-73
2022/10/30 00:16:55;;;;;;;17.27;14.23;;;;;;;;;;5155736;27;20475;-72
2022/10/30 00:19:22;;;;;;;18.60;14.03;;;;;;;;;;5155848;27;20479;-72
2022/10/30 00:21:51;;;;;;;19.83;13.63;;;;;;;;;;5155731;27;20455;-72
2022/10/30 00:24:18;;;;;;;19.90;13.27;;;;;;;;;;5151914;27;20451;-72
2022/10/30 00:26:45;;;;;;;16.33;11.77;;;;;;;;;;5155479;27;20510;-72
2022/10/30 00:29:12;;;;;;;15.50;12.03;;;;;;;;;;5155629;27;20444;-72
2022/10/30 00:31:39;;;;;;;20.80;13.10;;;;;;;;;;5153496;27;20819;-72
2022/10/30 00:34:06;;;;;;;25.20;12.57;;;;;;;;;;5155019;27;20452;-72
2022/10/30 00:36:33;;;;;;;19.53;13.43;;;;;;;;;;5152674;27;20468;-72
2022/10/30 00:39:02;;;;;;;19.33;13.93;;;;;;;;;;5155635;27;20444;-72
2022/10/30 00:41:30;;;;;;;23.97;14.93;;;;;;;;;;5155261;27;20462;-72
2022/10/30 00:43:57;;;;;;;20.03;13.57;;;;;;;;;;5154862;27;20447;-72
2022/10/30 00:46:26;;;;;;;16.70;13.63;;;;;;;;;;5155013;27;20475;-72
2022/10/30 00:48:55;;;;;;;19.97;15.27;;;;;;;;;;5155435;27;20458;-72
2022/10/30 00:51:23;;;;;;;23.63;17.60;;;;;;;;;;5155127;27;20970;-72
2022/10/30 00:53:50;;;;;;;22.50;15.70;;;;;;;;;;5154454;27;20933;-72
2022/10/30 00:56:21;;;;;;;33.83;17.77;;;;;;;;;;5155198;27;20472;-72
2022/10/30 00:58:51;;;;;;;30.70;16.40;;;;;;;;;;5153820;27;20825;-73
2022/10/30 01:01:20;;;;;;;27.40;17.50;;;;;;;;;;5154919;27;20452;-72
2022/10/30 01:03:49;;;;;;;25.83;17.33;;;;;;;;;;5154244;27;20460;-72
2022/10/30 01:06:16;;;;;;;27.90;17.33;;;;;;;;;;5153033;27;20972;-72
2022/10/30 01:08:44;;;;;;;27.33;17.10;;;;;;;;;;5154892;27;20456;-72
2022/10/30 01:11:11;;;;;;;22.50;16.73;;;;;;;;;;5152304;27;20463;-72
2022/10/30 01:13:40;;;;;;;24.10;16.30;;;;;;;;;;5154031;27;20456;-72
2022/10/30 01:16:13;;;;;;;25.20;17.10;;;;;;;;;;5154539;27;20471;-72
2022/10/30 01:18:47;;;;;;;23.73;15.50;;;;;;;;;;5154840;27;20448;-72
2022/10/30 01:21:29;;;;;;;28.20;15.83;;;;;;;;;;5154933;27;20959;-72
2022/10/30 01:24:03;;;;;;;25.03;16.33;;;;;;;;;;5148979;27;20962;-73
2022/10/30 01:26:35;;;;;;;23.37;14.40;;;;;;;;;;5154429;27;20467;-72
2022/10/30 01:29:18;;;;;;;18.73;14.73;;;;;;;;;;5154785;27;20490;-72
2022/10/30 01:31:51;;;;;;;17.87;13.50;;;;;;;;;;5154462;27;20542;-72
2022/10/30 01:34:19;;;;;;;27.50;15.93;;;;;;;;;;5153101;27;20456;-72
2022/10/30 01:36:50;;;;;;;34.03;18.43;;;;;;;;;;5154116;27;20556;-72
2022/10/30 01:39:19;;;;;;;24.90;16.73;;;;;;;;;;5154687;27;20451;-72
2022/10/30 01:41:46;;;;;;;34.03;19.73;;;;;;;;;;5152164;27;20807;-72
2022/10/30 01:44:18;;;;;;;41.73;21.93;;;;;;;;;;5153783;27;20454;-72
2022/10/30 01:46:53;;;;;;;37.87;19.17;;;;;;;;;;5152225;27;21047;-72
2022/10/30 01:49:34;;;;;;;36.37;21.63;;;;;;;;;;5154253;27;20458;-72
2022/10/30 01:52:06;;;;;;;45.83;21.17;;;;;;;;;;5154346;27;20929;-72
2022/10/30 01:54:38;;;;;;;36.60;20.60;;;;;;;;;;5153449;27;20451;-72
2022/10/30 01:57:08;;;;;;;34.80;19.63;;;;;;;;;;5153135;27;20968;-72
2022/10/30 01:59:38;;;;;;;33.47;19.70;;;;;;;;;;5154116;27;20452;-72
2022/10/30 02:02:05;;;;;;;37.10;18.23;;;;;;;;;;5154114;27;20459;-72
2022/10/30 02:04:33;;;;;;;34.73;18.70;;;;;;;;;;5153526;27;20469;-72
2022/10/30 02:07:00;;;;;;;29.67;16.73;;;;;;;;;;5154077;27;20491;-72
2022/10/30 02:09:27;;;;;;;27.30;18.80;;;;;;;;;;5154124;27;20451;-72
2022/10/30 02:11:55;;;;;;;34.63;17.70;;;;;;;;;;5153725;27;20812;-72
2022/10/30 02:14:25;;;;;;;29.60;17.20;;;;;;;;;;5153417;27;20462;-72
2022/10/30 02:16:55;;;;;;;22.30;16.73;;;;;;;;;;5151575;27;20470;-72
2022/10/30 02:19:22;;;;;;;26.00;17.60;;;;;;;;;;5154124;27;20451;-72
2022/10/30 02:21:51;;;;;;;36.17;15.00;;;;;;;;;;5154283;27;20801;-72
2022/10/30 02:24:18;;;;;;;24.87;15.50;;;;;;;;;;5151568;27;20474;-72
2022/10/30 02:26:45;;;;;;;20.27;15.13;;;;;;;;;;5151768;27;20475;-72
2022/10/30 02:29:13;;;;;;;28.00;17.23;;;;;;;;;;5153924;27;20451;-72
2022/10/30 02:31:40;;;;;;;22.07;16.07;;;;;;;;;;5153880;27;20474;-72
2022/10/30 02:34:07;;;;;;;28.07;18.37;;;;;;;;;;5153079;27;20454;-72
2022/10/30 02:36:34;;;;;;;38.17;20.63;;;;;;;;;;5153734;27;20471;-72
2022/10/30 02:39:03;;;;;;;36.37;22.30;;;;;;;;;;5153712;27;20450;-72
2022/10/30 02:41:30;;;;;;;53.53;28.73;;;;;;;;;;5153655;27;20450;-72
2022/10/30 02:43:57;;;;;;;40.23;26.40;;;;;;;;;;5153226;27;20929;-72
2022/10/30 02:46:25;;;;;;;48.40;30.10;;;;;;;;;;5155152;27;20463;-72
2022/10/30 02:48:52;;;;;;;51.23;29.13;;;;;;;;;;5157474;27;20479;-72
2022/10/30 02:51:19;;;;;;;38.60;25.80;;;;;;;;;;5157600;27;20777;-72
2022/10/30 02:53:47;;;;;;;43.87;25.80;;;;;;;;;;5156722;27;20462;-72
2022/10/30 02:56:16;;;;;;;43.83;24.37;;;;;;;;;;5155017;27;20861;-72
2022/10/30 02:58:43;;;;;;;46.17;25.53;;;;;;;;;;5155801;27;20448;-72
2022/10/30 03:01:11;;;;;;;38.20;23.10;;;;;;;;;;5154879;27;20817;-72
2022/10/30 03:03:38;;;;;;;39.30;22.07;;;;;;;;;;5156781;27;20550;-72
2022/10/30 03:06:07;;;;;;;36.73;20.50;;;;;;;;;;5157168;27;20470;-72
2022/10/30 03:08:34;;;;;;;34.43;22.97;;;;;;;;;;5157222;27;20487;-72
2022/10/30 03:11:02;;;;;;;28.37;20.33;;;;;;;;;;5157092;27;20462;-72
2022/10/30 03:13:31;;;;;;;29.03;19.10;;;;;;;;;;5156649;27;20488;-73
2022/10/30 03:16:02;;;;;;;29.37;18.17;;;;;;;;;;5157022;27;20467;-72
2022/10/30 03:18:29;;;;;;;24.17;17.10;;;;;;;;;;5156878;27;20436;-72
2022/10/30 03:20:56;;;;;;;27.17;19.53;;;;;;;;;;5156822;27;20452;-72
2022/10/30 03:23:24;;;;;;;30.20;18.40;;;;;;;;;;5156819;27;20618;-72
2022/10/30 03:25:53;;;;;;;27.17;18.93;;;;;;;;;;5154137;27;20471;-72
2022/10/30 03:28:20;;;;;;;29.93;18.70;;;;;;;;;;5156852;27;20544;-72
2022/10/30 03:30:49;;;;;;;30.00;18.30;;;;;;;;;;5155118;27;20912;-72
2022/10/30 03:33:16;;;;;;;25.83;19.40;;;;;;;;;;5156762;27;20471;-72
2022/10/30 03:35:44;;;;;;;32.53;21.17;;;;;;;;;;5153529;27;20890;-73
2022/10/30 03:38:11;;;;;;;29.73;20.83;;;;;;;;;;5156743;27;20476;-72
2022/10/30 03:40:39;;;;;;;31.47;21.43;;;;;;;;;;5156475;27;20457;-72
2022/10/30 03:43:06;;;;;;;36.30;20.83;;;;;;;;;;5156657;27;20443;-72
2022/10/30 03:45:33;;;;;;;33.97;20.00;;;;;;;;;;5155748;27;20985;-72
2022/10/30 03:48:02;;;;;;;31.10;18.57;;;;;;;;;;5156440;27;21014;-72
2022/10/30 03:50:29;;;;;;;29.30;19.30;;;;;;;;;;5156418;27;20451;-72
2022/10/30 03:52:56;;;;;;;25.67;20.60;;;;;;;;;;5156411;27;20448;-72
2022/10/30 03:55:24;;;;;;;26.13;19.40;;;;;;;;;;5155729;27;20976;-72
2022/10/30 03:57:51;;;;;;;29.60;19.20;;;;;;;;;;5153927;27;20452;-72
2022/10/30 04:00:18;;;;;;;34.30;19.50;;;;;;;;;;5156101;27;20455;-72
2022/10/30 04:02:46;;;;;;;30.70;17.47;;;;;;;;;;5156097;27;20975;-72
2022/10/30 04:05:15;;;;;;;27.43;17.53;;;;;;;;;;5155552;27;20444;-72
2022/10/30 04:07:42;;;;;;;28.50;17.63;;;;;;;;;;5154221;27;20479;-72
2022/10/30 04:10:09;;;;;;;27.13;16.30;;;;;;;;;;5156057;27;20523;-72
2022/10/30 04:12:36;;;;;;;26.20;16.17;;;;;;;;;;5153585;27;21035;-72
2022/10/30 04:15:04;;;;;;;26.10;16.17;;;;;;;;;;5155211;27;20456;-72
2022/10/30 04:17:31;;;;;;;26.87;15.50;;;;;;;;;;5155872;27;20960;-72
2022/10/30 04:19:58;;;;;;;23.73;15.77;;;;;;;;;;5156173;27;20444;-72
2022/10/30 04:22:27;;;;;;;23.50;16.40;;;;;;;;;;5155823;27;20834;-72
2022/10/30 04:24:54;;;;;;;30.30;17.00;;;;;;;;;;5153278;27;20447;-72
2022/10/30 04:27:21;;;;;;;28.53;16.97;;;;;;;;;;5155536;27;20483;-72
2022/10/30 04:29:48;;;;;;;30.20;18.43;;;;;;;;;;5155506;27;20818;-72
2022/10/30 04:32:15;;;;;;;25.53;16.90;;;;;;;;;;5155648;27;20448;-72
2022/10/30 04:34:42;;;;;;;20.50;15.87;;;;;;;;;;5154884;27;20953;-72
2022/10/30 04:37:09;;;;;;;27.83;18.90;;;;;;;;;;5155334;27;20476;-72
2022/10/30 04:39:38;;;;;;;25.50;17.77;;;;;;;;;;5155297;27;20955;-72
2022/10/30 04:42:05;;;;;;;22.70;15.70;;;;;;;;;;5153327;27;20452;-73
2022/10/30 04:44:32;;;;;;;21.97;16.10;;;;;;;;;;5154757;27;20814;-72
2022/10/30 04:46:59;;;;;;;23.70;16.80;;;;;;;;;;5152755;27;20471;-72
2022/10/30 04:49:26;;;;;;;26.87;16.20;;;;;;;;;;5155325;27;21035;-72
2022/10/30 04:51:53;;;;;;;27.30;16.20;;;;;;;;;;5155322;27;20458;-72
2022/10/30 04:54:20;;;;;;;26.60;17.20;;;;;;;;;;5154524;27;20447;-72
2022/10/30 04:56:49;;;;;;;27.50;16.43;;;;;;;;;;5153434;27;20528;-73
2022/10/30 04:59:16;;;;;;;25.07;16.03;;;;;;;;;;5155001;27;20451;-72
2022/10/30 05:01:43;;;;;;;25.73;16.57;;;;;;;;;;5155166;27;20933;-72
2022/10/30 05:04:10;;;;;;;24.17;17.13;;;;;;;;;;5154421;27;20455;-72
2022/10/30 05:06:37;;;;;;;25.40;17.60;;;;;;;;;;5154698;27;20479;-72
2022/10/30 05:09:04;;;;;;;24.13;16.13;;;;;;;;;;5154533;27;20515;-72
2022/10/30 05:11:32;;;;;;;26.57;17.93;;;;;;;;;;5154552;27;20467;-72
2022/10/30 05:14:00;;;;;;;26.20;16.10;;;;;;;;;;5154288;27;20443;-72
2022/10/30 05:16:27;;;;;;;29.20;16.40;;;;;;;;;;5152842;27;20467;-72
2022/10/30 05:18:54;;;;;;;24.40;15.23;;;;;;;;;;5154800;27;20435;-72
2022/10/30 05:21:21;;;;;;;20.97;14.73;;;;;;;;;;5152215;27;20451;-72
2022/10/30 05:23:49;;;;;;;22.37;14.33;;;;;;;;;;5153727;27;20886;-72
2022/10/30 05:26:16;;;;;;;19.33;13.70;;;;;;;;;;5153085;27;20467;-69
2022/10/30 05:28:43;;;;;;;19.90;14.20;;;;;;;;;;5154898;27;20479;-72
2022/10/30 05:31:11;;;;;;;20.00;14.53;;;;;;;;;;5154593;27;20448;-72
2022/10/30 05:33:38;;;;;;;18.90;13.90;;;;;;;;;;5153790;27;20459;-72
2022/10/30 05:36:06;;;;;;;15.50;11.83;;;;;;;;;;5154238;27;20472;-72
2022/10/30 05:38:33;;;;;;;18.10;11.80;;;;;;;;;;5154451;27;20451;-71
2022/10/30 05:41:00;;;;;;;16.37;12.87;;;;;;;;;;5154462;27;20455;-71
2022/10/30 05:43:27;;;;;;;25.53;15.20;;;;;;;;;;5154234;27;20832;-72
2022/10/30 05:45:54;;;;;;;18.03;14.43;;;;;;;;;;5154149;27;20471;-72
2022/10/30 05:48:22;;;;;;;18.00;13.00;;;;;;;;;;5154255;27;20841;-72
2022/10/30 05:50:50;;;;;;;16.10;11.67;;;;;;;;;;5152286;27;20458;-72
2022/10/30 05:53:17;;;;;;;14.57;11.73;;;;;;;;;;5154578;27;20458;-72
2022/10/30 05:55:44;;;;;;;17.43;12.73;;;;;;;;;;5150836;27;20479;-72
2022/10/30 05:58:11;;;;;;;15.77;11.17;;;;;;;;;;5153321;27;20454;-71
2022/10/30 06:00:39;;;;;;;22.30;13.97;;;;;;;;;;5154213;27;20448;-71
2022/10/30 06:03:07;;;;;;;20.40;14.00;;;;;;;;;;5154207;27;20558;-69
2022/10/30 06:05:36;;;;;;;20.27;14.30;;;;;;;;;;5153224;27;20479;-69
2022/10/30 06:08:04;;;;;;;19.30;14.50;;;;;;;;;;5154088;27;20810;-69
2022/10/30 06:10:31;;;;;;;23.00;15.00;;;;;;;;;;5154150;27;20447;-69
2022/10/30 06:12:59;;;;;;;20.27;14.80;;;;;;;;;;5154027;27;20467;-69
2022/10/30 06:15:27;;;;;;;22.50;14.63;;;;;;;;;;5153550;27;20830;-69
2022/10/30 06:17:54;;;;;;;21.07;13.30;;;;;;;;;;5145759;27;20486;-69
2022/10/30 06:20:22;;;;;;;28.33;14.90;;;;;;;;;;5150937;27;20454;-69
2022/10/30 06:22:57;;;;;;;36.10;15.67;;;;;;;;;;5155961;27;20448;-69
2022/10/30 06:25:24;;;;;;;41.83;16.40;;;;;;;;;;5152140;27;21007;-70
2022/10/30 06:27:51;;;;;;;31.03;16.60;;;;;;;;;;5155258;27;20458;-69
2022/10/30 06:30:19;;;;;;;22.67;15.93;;;;;;;;;;5155644;27;20490;-72
2022/10/30 06:32:46;;;;;;;21.63;15.50;;;;;;;;;;5154230;27;20443;-72
2022/10/30 06:35:13;;;;;;;51.20;23.50;;;;;;;;;;5156083;27;20932;-72
2022/10/30 06:37:46;;;;;;;225.93;59.27;;;;;;;;;;5155962;27;20465;-72
2022/10/30 06:40:14;;;;;;;101.97;34.30;;;;;;;;;;5155712;27;20480;-72
2022/10/30 06:42:44;;;;;;;153.40;43.37;;;;;;;;;;5155853;27;20479;-72
2022/10/30 06:45:12;;;;;;;59.80;24.13;;;;;;;;;;5155640;27;20451;-72
2022/10/30 06:47:39;;;;;;;15.13;13.23;;;;;;;;;;5155663;27;20447;-72
2022/10/30 06:50:07;;;;;;;13.90;11.60;;;;;;;;;;5155827;27;20491;-72
2022/10/30 06:52:34;;;;;;;17.07;11.70;;;;;;;;;;5155647;27;20800;-72
2022/10/30 06:55:01;;;;;;;21.20;16.90;;;;;;;;;;5155426;27;20454;-72
2022/10/30 06:57:30;;;;;;;17.37;11.37;;;;;;;;;;5154766;27;20455;-72
2022/10/30 06:59:57;;;;;;;12.60;9.53;;;;;;;;;;5155647;27;20439;-72
2022/10/30 07:02:24;;;;;;;12.80;9.93;;;;;;;;;;5153832;27;20439;-72
2022/10/30 07:04:51;;;;;;;23.93;11.47;;;;;;;;;;5155503;27;20443;-72
2022/10/30 07:07:18;;;;;;;14.83;10.23;;;;;;;;;;5154161;27;20478;-72
2022/10/30 07:09:46;;;;;;;17.73;12.10;;;;;;;;;;5154970;27;20489;-72
2022/10/30 07:12:13;;;;;;;14.03;9.77;;;;;;;;;;5155528;27;20463;-72
2022/10/30 07:14:42;;;;;;;21.20;14.13;;;;;;;;;;5155211;27;20796;-72
2022/10/30 07:17:09;;;;;;;19.63;12.20;;;;;;;;;;5154962;27;20474;-72
2022/10/30 07:19:36;;;;;;;11.93;9.60;;;;;;;;;;5155001;27;20447;-72
2022/10/30 07:22:03;;;;;;;14.50;10.80;;;;;;;;;;5155529;27;20447;-72
2022/10/30 07:24:30;;;;;;;10.50;7.70;;;;;;;;;;5152795;27;20487;-72
2022/10/30 07:26:57;;;;;;;8.67;6.83;;;;;;;;;;5155298;27;20817;-72
2022/10/30 07:29:24;;;;;;;8.90;7.57;;;;;;;;;;5155144;27;20476;-72
2022/10/30 07:31:53;;;;;;;9.13;6.43;;;;;;;;;;5155083;27;20451;-72
2022/10/30 07:34:20;;;;;;;9.37;6.53;;;;;;;;;;5155441;27;20971;-73
2022/10/30 07:36:47;;;;;;;7.60;6.27;;;;;;;;;;5153409;27;20476;-72
2022/10/30 07:39:14;;;;;;;6.83;6.00;;;;;;;;;;5154296;27;20444;-73
2022/10/30 07:41:41;;;;;;;6.43;5.80;;;;;;;;;;5153048;27;20478;-73
2022/10/30 07:44:09;;;;;;;8.57;6.00;;;;;;;;;;5154829;27;20454;-73
2022/10/30 07:46:36;;;;;;;9.93;6.67;;;;;;;;;;5154660;27;20467;-73
2022/10/30 07:49:04;;;;;;;10.53;6.37;;;;;;;;;;5154995;27;20475;-72
2022/10/30 07:51:31;;;;;;;8.73;6.27;;;;;;;;;;5154554;27;20452;-73
2022/10/30 07:53:58;;;;;;;8.20;6.60;;;;;;;;;;5154282;27;20451;-73
2022/10/30 07:56:25;;;;;;;9.03;6.93;;;;;;;;;;5154576;27;20467;-73
2022/10/30 07:58:53;;;;;;;14.70;6.83;;;;;;;;;;5154034;27;20444;-73
2022/10/30 08:01:20;;;;;;;9.07;6.87;;;;;;;;;;5154409;27;20780;-73
2022/10/30 08:03:47;;;;;;;11.80;6.33;;;;;;;;;;5154313;27;20984;-73
2022/10/30 08:06:16;;;;;;;9.70;6.30;;;;;;;;;;5154586;27;20467;-73
2022/10/30 08:08:43;;;;;;;9.10;7.50;;;;;;;;;;5154002;27;21094;-73
2022/10/30 08:11:10;;;;;;;10.50;6.90;;;;;;;;;;5153291;27;20460;-73
2022/10/30 08:13:37;;;;;;;10.10;5.90;;;;;;;;;;5154512;27;20962;-73
2022/10/30 08:16:04;;;;;;;10.47;7.60;;;;;;;;;;5152063;27;20471;-73
2022/10/30 08:18:31;;;;;;;10.63;6.90;;;;;;;;;;5154027;27;20447;-73
2022/10/30 08:20:58;;;;;;;9.70;6.20;;;;;;;;;;5154524;27;20443;-73
2022/10/30 08:23:27;;;;;;;10.10;6.60;;;;;;;;;;5153926;27;20448;-73
2022/10/30 08:25:59;;;;;;;11.93;7.63;;;;;;;;;;5153022;27;20478;-73
2022/10/30 08:28:26;;;;;;;7.50;6.30;;;;;;;;;;5154032;27;20442;-73
2022/10/30 08:30:53;;;;;;;8.90;6.00;;;;;;;;;;5153526;27;20484;-73
2022/10/30 08:33:20;;;;;;;6.40;5.00;;;;;;;;;;5154324;27;20440;-73
2022/10/30 08:35:49;;;;;;;9.63;6.60;;;;;;;;;;5153786;27;20478;-73
2022/10/30 08:38:16;;;;;;;11.63;6.23;;;;;;;;;;5153623;27;20542;-73
2022/10/30 08:40:45;;;;;;;14.73;6.20;;;;;;;;;;5153807;27;20451;-73
2022/10/30 08:43:12;;;;;;;9.20;6.33;;;;;;;;;;5154145;27;20805;-73
2022/10/30 08:45:39;;;;;;;9.53;6.73;;;;;;;;;;5151122;27;20863;-73
2022/10/30 08:48:07;;;;;;;13.07;6.80;;;;;;;;;;5153761;27;20447;-73
2022/10/30 08:50:34;;;;;;;9.40;5.40;;;;;;;;;;5152374;27;20472;-73
2022/10/30 08:53:02;;;;;;;10.67;5.80;;;;;;;;;;5153332;27;20449;-73
2022/10/30 08:55:30;;;;;;;7.00;4.77;;;;;;;;;;5153114;27;20532;-73
2022/10/30 08:57:58;;;;;;;7.60;4.73;;;;;;;;;;5153244;27;20436;-73
2022/10/30 09:00:26;;;;;;;9.13;5.60;;;;;;;;;;5152734;27;20447;-73
2022/10/30 09:02:53;;;;;;;10.73;7.23;;;;;;;;;;5153383;27;20462;-73
2022/10/30 09:05:20;;;;;;;11.43;5.33;;;;;;;;;;5153616;27;20472;-73
2022/10/30 09:07:47;;;;;;;9.20;5.67;;;;;;;;;;5153277;27;20828;-73
2022/10/30 09:10:15;;;;;;;7.63;5.50;;;;;;;;;;5153357;27;20840;-73
2022/10/30 09:12:42;;;;;;;11.07;6.13;;;;;;;;;;5153221;27;20459;-73
2022/10/30 09:15:10;;;;;;;14.00;6.37;;;;;;;;;;5152707;27;20817;-73
2022/10/30 09:17:37;;;;;;;11.23;5.80;;;;;;;;;;5144072;27;20975;-73
2022/10/30 09:20:05;;;;;;;10.73;6.10;;;;;;;;;;5132533;27;20678;-73
2022/10/30 09:22:32;;;;;;;8.40;5.27;;;;;;;;;;5130323;27;20457;-73
2022/10/30 09:24:59;;;;;;;13.33;5.93;;;;;;;;;;5130415;27;20443;-73
2022/10/30 09:27:27;;;;;;;8.00;5.53;;;;;;;;;;5131196;27;20436;-73
2022/10/30 09:29:54;;;;;;;6.63;5.60;;;;;;;;;;5132698;27;20517;-73
2022/10/30 09:32:22;;;;;;;12.63;7.27;;;;;;;;;;5133990;27;20479;-73
2022/10/30 09:34:50;;;;;;;9.00;5.10;;;;;;;;;;5132867;27;20455;-73
2022/10/30 09:37:17;;;;;;;9.80;5.83;;;;;;;;;;5133552;27;20673;-73
2022/10/30 09:39:45;;;;;;;9.93;5.57;;;;;;;;;;5145272;27;20444;-73
2022/10/30 09:42:25;;;;;;;10.00;5.60;;;;;;;;;;5154295;27;20458;-73
2022/10/30 09:44:59;;;;;;;9.40;5.70;;;;;;;;;;5154007;27;20971;-73
2022/10/30 09:47:33;;;;;;;8.60;5.23;;;;;;;;;;5154346;27;20948;-73
2022/10/30 09:50:17;;;;;;;5.60;4.33;;;;;;;;;;5154289;27;20482;-73
2022/10/30 09:52:50;;;;;;;10.30;6.50;;;;;;;;;;5154213;27;20818;-73
2022/10/30 09:55:24;;;;;;;12.93;5.20;;;;;;;;;;5153108;27;20448;-73
2022/10/30 09:57:56;;;;;;;12.60;6.00;;;;;;;;;;5152338;27;20452;-73
2022/10/30 10:00:24;;;;;;;12.33;6.40;;;;;;;;;;5156529;27;20446;-73
2022/10/30 10:02:57;;;;;;;13.77;5.47;;;;;;;;;;5153738;27;20455;-73
2022/10/30 10:05:26;;;;;;;11.60;5.63;;;;;;;;;;5154308;27;20463;-73
2022/10/30 10:07:56;;;;;;;9.67;5.57;;;;;;;;;;5154238;27;20450;-73
2022/10/30 10:10:26;;;;;;;12.13;6.20;;;;;;;;;;5154428;27;20483;-73
2022/10/30 10:12:55;;;;;;;10.50;5.67;;;;;;;;;;5154159;27;20451;-73
2022/10/30 10:15:25;;;;;;;10.07;6.63;;;;;;;;;;5153600;27;21003;-73
2022/10/30 10:17:55;;;;;;;13.20;5.90;;;;;;;;;;5154486;27;20801;-73
2022/10/30 10:20:27;;;;;;;8.77;5.30;;;;;;;;;;5154058;27;20452;-73
2022/10/30 10:22:56;;;;;;;11.50;5.40;;;;;;;;;;5154353;27;20788;-73
2022/10/30 10:25:24;;;;;;;7.03;5.50;;;;;;;;;;5152181;27;20846;-73
2022/10/30 10:27:56;;;;;;;16.20;6.07;;;;;;;;;;5153852;27;20463;-73
2022/10/30 10:30:24;;;;;;;14.70;7.27;;;;;;;;;;5153379;27;20490;-73
2022/10/30 10:32:59;;;;;;;10.10;5.97;;;;;;;;;;5152791;27;20444;-73
2022/10/30 10:35:47;;;;;;;8.47;5.77;;;;;;;;;;5153525;27;20471;-73
2022/10/30 10:38:20;;;;;;;10.50;5.83;;;;;;;;;;5153658;27;20443;-73
2022/10/30 10:40:53;;;;;;;15.90;6.80;;;;;;;;;;5152797;27;20748;-73
2022/10/30 10:43:26;;;;;;;13.43;6.33;;;;;;;;;;5154091;27;20436;-74
2022/10/30 10:46:13;;;;;;;11.00;4.50;;;;;;;;;;5153745;27;20463;-74
2022/10/30 10:48:48;;;;;;;9.63;4.60;;;;;;;;;;5153682;27;20821;-74
2022/10/30 10:51:18;;;;;;;11.53;5.10;;;;;;;;;;5153886;27;20848;-74
2022/10/30 10:53:47;;;;;;;7.67;5.10;;;;;;;;;;5153320;27;20452;-75
2022/10/30 10:56:14;;;;;;;10.73;4.50;;;;;;;;;;5153850;27;21002;-74
2022/10/30 10:58:45;;;;;;;7.87;4.57;;;;;;;;;;5152585;27;20451;-74
2022/10/30 11:01:14;;;;;;;11.70;5.87;;;;;;;;;;5153783;27;20447;-74
2022/10/30 11:03:46;;;;;;;9.30;4.60;;;;;;;;;;5152961;27;20447;-74
2022/10/30 11:06:20;;;;;;;9.37;4.70;;;;;;;;;;5153450;27;20470;-74
2022/10/30 11:08:47;;;;;;;8.93;4.90;;;;;;;;;;5157149;27;20444;-74
2022/10/30 11:11:15;;;;;;;7.17;4.17;;;;;;;;;;5155144;27;20487;-74
2022/10/30 11:13:43;;;;;;;10.20;5.93;;;;;;;;;;5156656;27;20548;-74
2022/10/30 11:16:15;;;;;;;9.80;4.20;;;;;;;;;;5155529;27;20980;-74
2022/10/30 11:18:42;;;;;;;7.03;3.93;;;;;;;;;;5157144;27;20448;-74
2022/10/30 11:21:11;;;;;;;7.33;4.10;;;;;;;;;;5157045;27;20447;-74
2022/10/30 11:23:40;;;;;;;7.83;4.60;;;;;;;;;;5156630;27;20451;-74
2022/10/30 11:26:26;;;;;;;9.50;5.20;;;;;;;;;;5155394;27;20503;-74
2022/10/30 11:28:54;;;;;;;9.73;4.23;;;;;;;;;;5156896;27;20943;-73
2022/10/30 11:31:23;;;;;;;14.03;4.70;;;;;;;;;;5156492;27;20487;-74
2022/10/30 11:33:50;;;;;;;12.10;5.30;;;;;;;;;;5155363;27;20486;-74
2022/10/30 11:36:19;;;;;;;12.80;5.77;;;;;;;;;;5156561;27;20469;-74
2022/10/30 11:38:47;;;;;;;11.80;5.33;;;;;;;;;;5156402;27;20524;-74
2022/10/30 11:41:15;;;;;;;13.70;6.17;;;;;;;;;;5156719;27;20462;-74
2022/10/30 11:43:43;;;;;;;9.97;4.70;;;;;;;;;;5156267;27;21036;-74
2022/10/30 11:46:11;;;;;;;12.67;4.70;;;;;;;;;;5153957;27;20482;-74
2022/10/30 11:48:39;;;;;;;17.70;7.00;;;;;;;;;;5155969;27;20452;-74
2022/10/30 11:51:06;;;;;;;9.83;6.47;;;;;;;;;;5154369;27;20487;-74
2022/10/30 11:53:37;;;;;;;11.23;5.03;;;;;;;;;;5155841;27;20451;-73
2022/10/30 11:56:13;;;;;;;9.60;5.93;;;;;;;;;;5156230;27;20477;-74
2022/10/30 11:58:44;;;;;;;8.73;5.93;;;;;;;;;;5156198;27;20476;-74
2022/10/30 12:01:15;;;;;;;7.50;5.00;;;;;;;;;;5156298;27;20452;-73
2022/10/30 12:03:42;;;;;;;7.43;4.50;;;;;;;;;;5155597;27;20474;-74
2022/10/30 12:06:11;;;;;;;8.73;4.43;;;;;;;;;;5155975;27;20479;-74
2022/10/30 12:08:38;;;;;;;14.93;4.43;;;;;;;;;;5156017;27;20443;-73
2022/10/30 12:11:07;;;;;;;9.27;5.50;;;;;;;;;;5155962;27;20491;-74
2022/10/30 12:13:38;;;;;;;8.33;5.40;;;;;;;;;;5155680;27;20814;-74
2022/10/30 12:16:12;;;;;;;16.13;5.40;;;;;;;;;;5155597;27;20524;-75
2022/10/30 12:18:40;;;;;;;11.43;5.30;;;;;;;;;;5154601;27;20448;-74
2022/10/30 12:21:07;;;;;;;19.60;6.40;;;;;;;;;;5151650;27;20436;-74
2022/10/30 12:23:35;;;;;;;11.27;5.03;;;;;;;;;;5154918;27;20496;-74
2022/10/30 12:26:08;;;;;;;8.40;4.40;;;;;;;;;;5152529;27;20471;-74
2022/10/30 12:28:37;;;;;;;10.17;4.83;;;;;;;;;;5155483;27;20456;-74
2022/10/30 12:31:07;;;;;;;13.00;6.37;;;;;;;;;;5155636;27;21124;-74
2022/10/30 12:33:35;;;;;;;15.43;5.97;;;;;;;;;;5155152;27;20448;-74
2022/10/30 12:36:04;;;;;;;21.87;6.27;;;;;;;;;;5155403;27;20463;-74
2022/10/30 12:38:34;;;;;;;11.27;4.80;;;;;;;;;;5154442;27;20904;-74
2022/10/30 12:41:04;;;;;;;12.07;6.30;;;;;;;;;;5154262;27;20475;-74
2022/10/30 12:43:33;;;;;;;16.73;5.30;;;;;;;;;;5152380;27;20447;-75
2022/10/30 12:46:07;;;;;;;17.60;5.20;;;;;;;;;;5154040;27;20500;-74
2022/10/30 12:48:37;;;;;;;12.03;5.53;;;;;;;;;;5155060;27;20897;-74
2022/10/30 12:51:11;;;;;;;12.13;5.53;;;;;;;;;;5155124;27;20487;-74
2022/10/30 12:53:41;;;;;;;12.80;5.17;;;;;;;;;;5154750;27;20456;-74
2022/10/30 12:56:10;;;;;;;8.13;5.30;;;;;;;;;;5153520;27;21002;-74
2022/10/30 12:58:39;;;;;;;18.53;5.30;;;;;;;;;;5155011;27;20439;-74
2022/10/30 13:01:13;;;;;;;9.87;5.77;;;;;;;;;;5153611;27;20450;-74
2022/10/30 13:03:42;;;;;;;10.90;5.83;;;;;;;;;;5154442;27;20454;-74
2022/10/30 13:06:13;;;;;;;8.17;4.60;;;;;;;;;;5154919;27;20468;-74
2022/10/30 13:08:44;;;;;;;12.60;5.77;;;;;;;;;;5154719;27;20444;-74
2022/10/30 13:11:15;;;;;;;18.10;5.70;;;;;;;;;;5154914;27;20992;-73
2022/10/30 13:13:44;;;;;;;15.10;6.50;;;;;;;;;;5154382;27;20478;-74
2022/10/30 13:16:15;;;;;;;13.97;5.27;;;;;;;;;;5154815;27;20466;-74
2022/10/30 13:18:43;;;;;;;10.83;6.40;;;;;;;;;;5154625;27;20443;-74
2022/10/30 13:21:28;;;;;;;13.43;5.83;;;;;;;;;;5154889;27;20502;-74
2022/10/30 13:23:58;;;;;;;15.93;5.60;;;;;;;;;;5153617;27;20807;-74
2022/10/30 13:26:31;;;;;;;16.57;7.37;;;;;;;;;;5154392;27;20468;-73
2022/10/30 13:29:02;;;;;;;24.90;11.40;;;;;;;;;;5154454;27;20451;-74
2022/10/30 13:31:34;;;;;;;17.00;7.73;;;;;;;;;;5153213;27;20490;-74
2022/10/30 13:34:04;;;;;;;10.63;5.70;;;;;;;;;;5154052;27;20462;-74
2022/10/30 13:36:33;;;;;;;10.17;6.20;;;;;;;;;;5153128;27;20482;-74
2022/10/30 13:39:03;;;;;;;13.70;7.50;;;;;;;;;;5154401;27;20447;-73
2022/10/30 13:41:36;;;;;;;11.17;5.70;;;;;;;;;;5154342;27;20444;-74
2022/10/30 13:44:07;;;;;;;14.60;7.40;;;;;;;;;;5153236;27;20960;-74
2022/10/30 13:46:45;;;;;;;14.47;5.17;;;;;;;;;;5154230;27;20555;-74
2022/10/30 13:49:21;;;;;;;10.23;6.00;;;;;;;;;;5154419;27;20491;-73
2022/10/30 13:51:51;;;;;;;12.53;6.23;;;;;;;;;;5154222;27;21015;-73
2022/10/30 13:54:20;;;;;;;9.37;5.70;;;;;;;;;;5154171;27;20447;-74
2022/10/30 13:56:48;;;;;;;10.33;5.67;;;;;;;;;;5154223;27;20562;-74
2022/10/30 13:59:26;;;;;;;11.30;6.93;;;;;;;;;;5154467;27;20834;-73
2022/10/30 14:01:59;;;;;;;14.97;7.10;;;;;;;;;;5154391;27;20940;-73
2022/10/30 14:04:30;;;;;;;10.80;6.30;;;;;;;;;;5153773;27;20845;-74
2022/10/30 14:07:03;;;;;;;17.23;6.27;;;;;;;;;;5151983;27;20483;-74
2022/10/30 14:09:36;;;;;;;11.20;7.07;;;;;;;;;;5154124;27;20452;-73
2022/10/30 14:12:20;;;;;;;11.73;6.20;;;;;;;;;;5152660;27;20490;-74
2022/10/30 14:14:48;;;;;;;13.57;6.90;;;;;;;;;;5152624;27;20450;-74
2022/10/30 14:17:17;;;;;;;15.00;5.80;;;;;;;;;;5154108;27;20820;-74
2022/10/30 14:20:18;;;;;;;9.80;5.60;;;;;;;;;;5154007;27;20451;-74
2022/10/30 14:23:05;;;;;;;11.30;5.67;;;;;;;;;;5069954;28;20486;-73
2022/10/30 14:25:32;;;;;;;10.43;6.33;;;;;;;;;;5066820;28;21002;-75
2022/10/30 14:27:59;;;;;;;13.73;6.70;;;;;;;;;;5116779;27;20486;-73
2022/10/30 14:30:28;;;;;;;13.30;6.87;;;;;;;;;;5151224;27;20923;-74
2022/10/30 14:32:56;;;;;;;9.23;6.27;;;;;;;;;;5152921;27;20544;-72
2022/10/30 14:35:31;;;;;;;10.93;6.27;;;;;;;;;;5145728;27;20476;-72
2022/10/30 14:38:15;;;;;;;13.37;5.97;;;;;;;;;;5140532;27;20809;-73